createdAt,value
2018-12-24T00:00:01.206Z,7.25
2018-12-24T00:02:43.097Z,6.42
2018-12-24T00:05:24.636Z,6.45
2018-12-24T00:08:06.053Z,5.67
2018-12-24T00:10:47.548Z,5.95
2018-12-24T00:13:29.322Z,5.78
2018-12-24T00:16:10.575Z,8.15
2018-12-24T00:18:52.313Z,6.57
2018-12-24T00:21:33.617Z,7.80
2018-12-24T00:24:14.919Z,7.50
2018-12-24T00:26:56.224Z,5.95
2018-12-24T00:29:37.436Z,7.12
2018-12-24T00:32:19.141Z,6.30
2018-12-24T00:38:13.441Z,7.97
2018-12-24T00:40:55.317Z,7.00
2018-12-24T00:43:35.544Z,6.85
2018-12-24T00:55:10.472Z,7.72
2018-12-24T00:57:52.347Z,8.55
2018-12-24T01:00:33.451Z,7.10
2018-12-24T01:03:14.545Z,7.58
2018-12-24T01:05:56.277Z,6.97
2018-12-24T01:08:37.458Z,6.73
2018-12-24T01:11:18.977Z,6.58
2018-12-24T01:16:58.769Z,6.08
2018-12-24T01:19:39.944Z,6.53
2018-12-24T01:25:33.658Z,8.08
2018-12-24T01:28:14.849Z,7.70
2018-12-24T01:30:56.082Z,6.47
2018-12-24T01:33:37.346Z,6.80
2018-12-24T01:36:18.686Z,6.20
2018-12-24T01:38:59.928Z,7.42
2018-12-24T01:41:41.854Z,8.05
2018-12-24T01:44:21.986Z,6.83
2018-12-24T01:47:11.076Z,5.83
2018-12-24T01:50:10.979Z,6.50
2018-12-24T01:55:54.287Z,7.27
2018-12-24T01:58:35.302Z,7.28
2018-12-24T02:01:16.704Z,7.22
2018-12-24T02:07:10.748Z,7.62
2018-12-24T02:09:52.593Z,7.92
2018-12-24T02:12:42.017Z,6.60
2018-12-24T02:15:17.000Z,5.23
2018-12-24T02:17:58.278Z,7.57
2018-12-24T02:20:39.529Z,6.67
2018-12-24T02:23:21.465Z,7.08
2018-12-24T02:26:03.145Z,8.60
2018-12-24T02:28:44.297Z,7.62
2018-12-24T02:31:25.515Z,7.17
2018-12-24T02:34:07.456Z,8.43
2018-12-24T02:36:48.774Z,8.30
2018-12-24T02:39:29.868Z,7.15
2018-12-24T02:42:10.887Z,7.53
2018-12-24T02:44:52.333Z,6.62
2018-12-24T02:47:33.555Z,6.75
2018-12-24T02:50:13.653Z,7.00
2018-12-24T02:55:49.704Z,7.70
2018-12-24T03:08:36.037Z,6.85
2018-12-24T03:11:16.981Z,6.87
2018-12-24T03:13:58.563Z,8.23
2018-12-24T03:16:40.087Z,7.70
2018-12-24T03:19:21.285Z,7.65
2018-12-24T03:22:02.674Z,8.03
2018-12-24T03:24:43.549Z,7.78
2018-12-24T03:27:25.097Z,8.38
2018-12-24T03:30:06.708Z,7.47
2018-12-24T03:32:48.466Z,7.40
2018-12-24T03:35:30.304Z,6.75
2018-12-24T03:38:11.842Z,6.65
2018-12-24T03:40:53.189Z,7.30
2018-12-24T03:43:34.859Z,7.65
2018-12-24T03:46:15.685Z,7.28
2018-12-24T03:48:56.533Z,6.80
2018-12-24T03:54:19.969Z,7.30
2018-12-24T03:56:59.723Z,7.87
2018-12-24T04:08:52.335Z,6.53
2018-12-24T04:32:31.969Z,7.42
2018-12-24T04:43:59.104Z,7.22
2018-12-24T04:46:46.960Z,7.00
2018-12-24T04:55:43.019Z,8.17
2018-12-24T04:58:24.264Z,7.75
2018-12-24T05:01:05.005Z,8.43
2018-12-24T05:03:46.446Z,8.27
2018-12-24T05:06:27.378Z,8.00
2018-12-24T05:09:09.039Z,7.23
2018-12-24T05:11:49.908Z,8.07
2018-12-24T05:14:31.301Z,8.18
2018-12-24T05:17:11.045Z,7.65
2018-12-24T05:23:09.485Z,7.12
2018-12-24T05:28:55.085Z,8.50
2018-12-24T05:31:43.781Z,8.77
2018-12-24T05:34:32.641Z,8.23
2018-12-24T05:40:30.484Z,9.15
2018-12-24T05:46:14.592Z,7.67
2018-12-24T05:54:54.172Z,7.72
2018-12-24T05:57:35.685Z,7.00
2018-12-24T06:00:17.425Z,7.17
2018-12-24T06:02:58.941Z,6.90
2018-12-24T06:05:40.165Z,6.85
2018-12-24T06:08:21.790Z,7.62
2018-12-24T06:11:03.201Z,7.70
2018-12-24T06:13:44.784Z,6.72
2018-12-24T06:16:26.090Z,7.17
2018-12-24T06:19:07.019Z,7.03
2018-12-24T06:21:47.868Z,7.28
2018-12-24T06:24:29.483Z,6.85
2018-12-24T06:27:10.778Z,8.00
2018-12-24T06:29:52.501Z,7.83
2018-12-24T06:32:34.054Z,6.07
2018-12-24T06:35:15.679Z,6.97
2018-12-24T06:37:57.380Z,7.33
2018-12-24T06:40:39.002Z,7.00
2018-12-24T06:43:19.786Z,6.75
2018-12-24T06:46:01.337Z,7.40
2018-12-24T06:48:42.660Z,6.60
2018-12-24T06:51:24.273Z,7.15
2018-12-24T06:54:05.597Z,7.85
2018-12-24T06:56:46.723Z,7.07
2018-12-24T06:59:27.886Z,6.87
2018-12-24T07:02:09.433Z,7.50
2018-12-24T07:04:50.905Z,7.80
2018-12-24T07:07:32.188Z,7.55
2018-12-24T07:10:13.817Z,8.20
2018-12-24T07:12:54.970Z,7.95
2018-12-24T07:15:35.710Z,8.60
2018-12-24T07:18:17.068Z,7.72
2018-12-24T07:20:58.373Z,7.00
2018-12-24T07:23:39.259Z,7.20
2018-12-24T07:26:20.792Z,6.45
2018-12-24T07:32:00.378Z,7.20
2018-12-24T07:34:42.164Z,7.15
2018-12-24T07:37:25.295Z,6.62
2018-12-24T07:40:06.497Z,8.13
2018-12-24T07:42:47.330Z,8.38
2018-12-24T07:45:27.012Z,6.40
2018-12-24T07:51:28.435Z,9.20
2018-12-24T07:56:53.396Z,8.70
2018-12-24T07:59:34.935Z,7.72
2018-12-24T08:02:16.569Z,6.75
2018-12-24T08:04:58.148Z,8.90
2018-12-24T08:07:39.368Z,7.17
2018-12-24T08:10:20.549Z,7.90
2018-12-24T08:13:01.354Z,7.40
2018-12-24T08:15:42.720Z,8.55
2018-12-24T08:18:22.614Z,7.40
2018-12-24T08:24:34.494Z,6.87
2018-12-24T08:36:10.902Z,6.85
2018-12-24T08:45:22.212Z,8.65
2018-12-24T08:48:14.785Z,8.50
2018-12-24T08:53:46.962Z,7.05
2018-12-24T08:56:29.234Z,7.50
2018-12-24T08:59:10.719Z,6.80
2018-12-24T09:01:52.060Z,7.47
2018-12-24T09:04:33.664Z,7.70
2018-12-24T09:07:15.238Z,7.83
2018-12-24T09:09:56.944Z,8.88
2018-12-24T09:12:38.565Z,7.22
2018-12-24T09:15:20.166Z,7.92
2018-12-24T09:18:01.737Z,7.78
2018-12-24T09:20:43.333Z,7.50
2018-12-24T09:23:23.118Z,8.75
2018-12-24T09:26:23.889Z,7.43
2018-12-24T09:29:03.668Z,7.42
2018-12-24T09:31:52.429Z,7.65
2018-12-24T09:43:48.709Z,7.53
2018-12-24T09:46:37.458Z,7.40
2018-12-24T09:52:35.577Z,7.40
2018-12-24T09:58:33.645Z,8.65
2018-12-24T10:08:00.486Z,8.40
2018-12-24T10:10:39.273Z,7.28
2018-12-24T10:28:22.759Z,7.35
2018-12-24T10:37:07.401Z,8.43
2018-12-24T10:46:24.119Z,8.68
2018-12-24T10:57:38.326Z,7.40
2018-12-24T11:15:25.194Z,6.03
2018-12-24T11:21:27.569Z,7.53
2018-12-24T11:36:26.286Z,7.45
2018-12-24T11:42:11.893Z,7.37
2018-12-24T11:44:41.984Z,7.12
2018-12-24T11:47:12.038Z,8.40
2018-12-24T11:49:42.013Z,7.55
2018-12-24T11:52:12.084Z,7.07
2018-12-24T11:54:42.059Z,8.28
2018-12-24T11:57:12.277Z,7.30
2018-12-24T11:59:42.294Z,7.83
2018-12-24T12:02:12.365Z,7.45
2018-12-24T12:04:42.636Z,7.67
2018-12-24T12:07:12.597Z,7.87
2018-12-24T12:09:42.669Z,8.15
2018-12-24T12:12:12.621Z,8.75
2018-12-24T12:14:42.509Z,8.65
2018-12-24T12:17:12.468Z,8.08
2018-12-24T12:19:42.320Z,8.05
2018-12-24T12:22:12.276Z,7.50
2018-12-24T12:24:42.359Z,7.97
2018-12-24T12:27:12.412Z,7.45
2018-12-24T12:29:42.598Z,7.90
2018-12-24T12:32:12.856Z,8.60
2018-12-24T12:34:43.050Z,8.18
2018-12-24T12:37:13.105Z,7.53
2018-12-24T12:39:43.229Z,8.65
2018-12-24T12:42:13.321Z,8.03
2018-12-24T12:44:43.308Z,8.48
2018-12-24T12:47:13.136Z,8.00
2018-12-24T12:49:42.992Z,7.25
2018-12-24T12:52:12.944Z,7.83
2018-12-24T12:54:42.793Z,6.97
2018-12-24T12:57:12.889Z,7.53
2018-12-24T12:59:43.397Z,6.92
2018-12-24T13:02:13.595Z,7.75
2018-12-24T13:04:43.698Z,6.70
2018-12-24T13:07:14.677Z,8.28
2018-12-24T13:09:44.657Z,7.03
2018-12-24T13:12:14.518Z,8.53
2018-12-24T13:14:44.512Z,7.25
2018-12-24T13:17:14.554Z,7.42
2018-12-24T13:19:44.509Z,8.08
2018-12-24T13:22:14.475Z,7.75
2018-12-24T13:24:44.432Z,8.63
2018-12-24T13:27:14.681Z,8.10
2018-12-24T13:29:44.885Z,7.70
2018-12-24T13:32:14.957Z,8.45
2018-12-24T13:34:44.798Z,6.97
2018-12-24T13:37:14.590Z,8.07
2018-12-24T13:39:44.932Z,7.45
2018-12-24T13:42:15.036Z,7.58
2018-12-24T13:44:45.185Z,8.18
2018-12-24T13:47:15.319Z,7.85
2018-12-24T13:49:45.521Z,7.78
2018-12-24T13:52:15.829Z,7.40
2018-12-24T13:54:45.771Z,7.08
2018-12-24T13:57:15.844Z,6.73
2018-12-24T13:59:47.475Z,7.45
2018-12-24T14:02:17.624Z,7.92
2018-12-24T14:04:47.817Z,7.67
2018-12-24T14:07:18.802Z,7.12
2018-12-24T14:09:48.783Z,7.40
2018-12-24T14:12:19.159Z,8.48
2018-12-24T14:14:49.240Z,8.67
2018-12-24T14:17:19.497Z,8.60
2018-12-24T14:19:49.565Z,7.55
2018-12-24T14:22:19.524Z,7.85
2018-12-24T14:24:49.712Z,6.87
2018-12-24T14:27:19.764Z,8.25
2018-12-24T14:29:49.852Z,8.37
2018-12-24T14:32:20.002Z,8.08
2018-12-24T14:34:50.195Z,6.75
2018-12-24T14:37:20.245Z,8.63
2018-12-24T14:39:50.224Z,8.20
2018-12-24T14:42:21.397Z,7.33
2018-12-24T14:44:52.819Z,7.37
2018-12-24T14:47:22.921Z,6.90
2018-12-24T14:49:52.849Z,8.40
2018-12-24T14:52:22.835Z,8.20
2018-12-24T14:54:52.757Z,8.05
2018-12-24T14:57:22.849Z,7.45
2018-12-24T14:59:52.701Z,7.35
2018-12-24T15:02:22.557Z,7.97
2018-12-24T15:04:52.634Z,8.38
2018-12-24T15:07:22.584Z,6.90
2018-12-24T15:09:52.773Z,7.83
2018-12-24T15:12:22.714Z,9.30
2018-12-24T15:14:52.699Z,8.10
2018-12-24T15:17:22.921Z,8.65
2018-12-24T15:19:52.949Z,8.38
2018-12-24T15:22:23.108Z,7.85
2018-12-24T15:24:53.292Z,8.30
2018-12-24T15:27:23.544Z,7.42
2018-12-24T15:29:53.437Z,9.57
2018-12-24T15:32:23.628Z,8.63
2018-12-24T15:34:53.837Z,8.03
2018-12-24T15:37:23.978Z,8.53
2018-12-24T15:39:53.932Z,8.08
2018-12-24T15:42:24.112Z,7.80
2018-12-24T15:44:54.364Z,7.47
2018-12-24T15:47:24.849Z,7.28
2018-12-24T15:49:56.628Z,8.45
2018-12-24T15:52:26.543Z,7.75
2018-12-24T15:54:56.492Z,7.77
2018-12-24T15:57:26.565Z,8.85
2018-12-24T15:59:56.565Z,7.87
2018-12-24T16:02:28.437Z,9.00
2018-12-24T16:04:58.437Z,8.38
2018-12-24T16:07:28.377Z,8.57
2018-12-24T16:09:58.293Z,9.43
2018-12-24T16:12:28.291Z,8.98
2018-12-24T16:14:58.293Z,7.03
2018-12-24T16:17:28.233Z,10.43
2018-12-24T16:19:58.262Z,9.05
2018-12-24T16:22:28.483Z,9.10
2018-12-24T16:24:58.496Z,9.25
2018-12-24T16:27:28.513Z,9.05
2018-12-24T16:29:58.245Z,8.68
2018-12-24T16:32:28.428Z,8.53
2018-12-24T16:34:58.480Z,9.03
2018-12-24T16:37:28.569Z,9.25
2018-12-24T16:39:58.453Z,9.28
2018-12-24T16:42:28.297Z,8.83
2018-12-24T16:44:58.204Z,9.55
2018-12-24T16:47:28.178Z,8.18
2018-12-24T16:49:58.136Z,9.35
2018-12-24T16:52:28.196Z,9.43
2018-12-24T16:54:58.178Z,8.88
2018-12-24T16:57:28.330Z,8.95
2018-12-24T16:59:58.081Z,8.30
2018-12-24T17:02:27.964Z,8.65
2018-12-24T17:04:58.037Z,8.80
2018-12-24T17:07:28.104Z,8.60
2018-12-24T17:09:58.134Z,8.77
2018-12-24T17:12:28.122Z,8.88
2018-12-24T17:14:58.110Z,9.18
2018-12-24T17:17:27.953Z,9.73
2018-12-24T17:19:57.713Z,8.60
2018-12-24T17:22:27.785Z,10.00
2018-12-24T17:24:58.029Z,8.70
2018-12-24T17:27:27.917Z,9.40
2018-12-24T17:29:57.976Z,10.00
2018-12-24T17:32:28.058Z,9.15
2018-12-24T17:34:58.189Z,9.13
2018-12-24T17:37:28.087Z,8.93
2018-12-24T17:39:57.949Z,9.37
2018-12-24T17:42:28.109Z,10.20
2018-12-24T17:44:58.282Z,10.70
2018-12-24T17:47:28.456Z,9.60
2018-12-24T17:50:17.097Z,8.53
2018-12-24T17:58:49.109Z,10.05
2018-12-24T18:01:30.506Z,9.65
2018-12-24T18:04:11.472Z,10.40
2018-12-24T18:06:53.092Z,9.58
2018-12-24T18:09:34.053Z,9.33
2018-12-24T18:12:14.778Z,9.90
2018-12-24T18:14:56.377Z,8.80
2018-12-24T18:17:38.959Z,9.95
2018-12-24T18:20:20.656Z,9.88
2018-12-24T18:23:02.131Z,10.65
2018-12-24T18:25:43.420Z,8.73
2018-12-24T18:28:25.035Z,9.43
2018-12-24T18:31:06.348Z,10.50
2018-12-24T18:33:47.270Z,10.20
2018-12-24T18:36:28.209Z,10.32
2018-12-24T18:39:09.044Z,10.58
2018-12-24T18:41:50.673Z,11.33
2018-12-24T18:44:31.712Z,10.30
2018-12-24T18:47:12.709Z,10.17
2018-12-24T18:49:54.288Z,10.95
2018-12-24T18:52:35.181Z,9.78
2018-12-24T18:55:16.610Z,10.60
2018-12-24T18:57:58.526Z,11.03
2018-12-24T19:00:29.184Z,9.48
2018-12-24T19:24:23.183Z,11.97
2018-12-24T19:39:07.942Z,10.88
2018-12-24T20:26:05.053Z,8.80
2018-12-24T20:31:49.629Z,10.60
2018-12-24T20:57:58.465Z,9.35
2018-12-24T21:00:39.412Z,9.83
2018-12-24T21:03:19.161Z,9.27
2018-12-24T21:29:41.557Z,10.40
2018-12-24T21:38:24.541Z,11.60
2018-12-24T21:47:22.590Z,11.05
2018-12-24T21:54:04.588Z,10.68
2018-12-24T21:56:46.325Z,10.28
2018-12-24T21:59:55.494Z,10.28
2018-12-24T22:14:13.109Z,10.80
2018-12-24T22:17:22.265Z,10.48
2018-12-24T22:23:13.606Z,10.78
2018-12-24T22:28:43.535Z,10.23
2018-12-24T22:57:57.605Z,10.35
2018-12-24T23:03:48.909Z,9.95
2018-12-24T23:06:30.528Z,9.90
2018-12-24T23:09:11.298Z,9.90
2018-12-24T23:11:52.233Z,12.05
2018-12-24T23:14:33.125Z,11.37
2018-12-24T23:17:14.681Z,10.35
2018-12-24T23:19:56.261Z,10.53
2018-12-24T23:22:37.924Z,10.45
2018-12-24T23:25:18.837Z,10.00
2018-12-24T23:28:00.441Z,11.55
2018-12-24T23:30:41.205Z,10.38
2018-12-24T23:33:22.925Z,9.93
2018-12-24T23:36:04.396Z,10.60
2018-12-24T23:38:45.949Z,11.90
2018-12-24T23:41:27.491Z,10.18
2018-12-24T23:44:36.545Z,11.05
